createdAt,value
2018-07-20T00:00:07.388Z,11.20
2018-07-20T00:02:47.889Z,10.57
2018-07-20T00:05:28.777Z,10.43
2018-07-20T00:08:09.280Z,12.23
2018-07-20T00:10:49.949Z,12.07
2018-07-20T00:13:30.887Z,12.13
2018-07-20T00:16:11.772Z,11.63
2018-07-20T00:18:52.331Z,11.97
2018-07-20T00:21:33.324Z,12.33
2018-07-20T00:24:14.076Z,11.73
2018-07-20T00:26:55.100Z,11.40
2018-07-20T00:29:35.672Z,11.30
2018-07-20T00:32:16.448Z,10.97
2018-07-20T00:34:57.410Z,12.53
2018-07-20T00:37:38.247Z,12.50
2018-07-20T00:40:19.080Z,11.90
2018-07-20T00:42:59.938Z,12.17
2018-07-20T00:45:40.298Z,12.70
2018-07-20T00:48:20.864Z,12.23
2018-07-20T00:51:01.720Z,13.20
2018-07-20T00:53:42.483Z,13.60
2018-07-20T00:56:22.915Z,13.97
2018-07-20T00:59:03.860Z,13.60
2018-07-20T01:01:44.943Z,13.50
2018-07-20T01:04:25.981Z,12.40
2018-07-20T01:07:06.730Z,12.30
2018-07-20T01:09:47.364Z,13.30
2018-07-20T01:12:29.515Z,11.60
2018-07-20T01:15:10.657Z,13.07
2018-07-20T01:17:51.042Z,12.10
2018-07-20T01:20:32.141Z,13.33
2018-07-20T01:23:12.877Z,12.27
2018-07-20T01:25:53.619Z,12.83
2018-07-20T01:28:34.114Z,14.00
2018-07-20T01:31:15.292Z,13.17
2018-07-20T01:33:55.770Z,12.93
2018-07-20T01:36:36.119Z,12.87
2018-07-20T01:39:16.787Z,12.00
2018-07-20T01:41:57.501Z,12.20
2018-07-20T01:44:38.428Z,11.83
2018-07-20T01:47:18.687Z,11.53
2018-07-20T01:49:59.101Z,12.50
2018-07-20T01:52:39.976Z,13.13
2018-07-20T01:55:20.684Z,12.03
2018-07-20T01:58:01.595Z,12.27
2018-07-20T02:00:43.441Z,12.90
2018-07-20T02:03:24.024Z,11.37
2018-07-20T02:06:05.179Z,12.13
2018-07-20T02:08:46.014Z,11.70
2018-07-20T02:11:26.875Z,12.87
2018-07-20T02:14:07.195Z,13.67
2018-07-20T02:16:48.224Z,14.47
2018-07-20T02:19:29.100Z,14.33
2018-07-20T02:22:09.887Z,14.53
2018-07-20T02:24:50.624Z,14.00
2018-07-20T02:27:31.963Z,14.10
2018-07-20T02:30:12.712Z,13.63
2018-07-20T02:32:53.752Z,14.37
2018-07-20T02:35:35.012Z,14.13
2018-07-20T02:38:15.792Z,16.00
2018-07-20T02:40:56.154Z,15.87
2018-07-20T02:43:37.523Z,14.37
2018-07-20T02:46:18.368Z,14.83
2018-07-20T02:48:59.061Z,15.43
2018-07-20T02:51:40.241Z,14.17
2018-07-20T02:54:20.811Z,15.67
2018-07-20T02:57:01.957Z,13.03
2018-07-20T02:59:42.556Z,12.13
2018-07-20T03:02:23.617Z,13.50
2018-07-20T03:05:05.012Z,12.60
2018-07-20T03:07:45.878Z,12.00
2018-07-20T03:10:26.392Z,11.07
2018-07-20T03:13:07.682Z,11.60
2018-07-20T03:15:48.405Z,12.20
2018-07-20T03:18:29.111Z,11.53
2018-07-20T03:21:10.608Z,11.77
2018-07-20T03:23:51.585Z,11.67
2018-07-20T03:26:32.481Z,10.57
2018-07-20T03:29:13.684Z,10.33
2018-07-20T03:31:54.227Z,10.37
2018-07-20T03:34:34.966Z,11.00
2018-07-20T03:37:15.437Z,9.90
2018-07-20T03:39:56.441Z,10.27
2018-07-20T03:42:38.244Z,11.25
2018-07-20T03:45:19.613Z,11.33
2018-07-20T03:48:00.838Z,11.00
2018-07-20T03:50:42.039Z,10.73
2018-07-20T03:53:22.739Z,10.00
2018-07-20T03:56:04.113Z,9.87
2018-07-20T03:58:44.962Z,10.23
2018-07-20T04:01:25.644Z,9.50
2018-07-20T04:04:06.484Z,9.07
2018-07-20T04:06:46.973Z,8.57
2018-07-20T04:09:27.812Z,10.20
2018-07-20T04:12:08.575Z,10.37
2018-07-20T04:14:49.346Z,10.28
2018-07-20T04:17:36.741Z,9.93
2018-07-20T04:20:17.742Z,10.07
2018-07-20T04:22:58.160Z,9.73
2018-07-20T04:25:39.340Z,9.83
2018-07-20T04:28:20.357Z,9.77
2018-07-20T04:31:01.152Z,9.67
2018-07-20T04:33:41.841Z,10.10
2018-07-20T04:36:22.327Z,9.77
2018-07-20T04:39:06.321Z,9.70
2018-07-20T04:41:46.789Z,9.10
2018-07-20T04:44:27.340Z,10.30
2018-07-20T04:47:08.204Z,8.97
2018-07-20T04:49:49.004Z,9.80
2018-07-20T04:52:29.979Z,9.43
2018-07-20T04:55:11.389Z,8.90
2018-07-20T04:57:51.991Z,9.40
2018-07-20T05:00:32.989Z,9.00
2018-07-20T05:03:14.099Z,10.03
2018-07-20T05:05:54.779Z,10.07
2018-07-20T05:08:35.716Z,9.50
2018-07-20T05:11:16.742Z,9.00
2018-07-20T05:13:57.256Z,10.30
2018-07-20T05:16:37.883Z,9.57
2018-07-20T05:19:18.604Z,9.50
2018-07-20T05:21:59.781Z,9.40
2018-07-20T05:24:40.324Z,9.10
2018-07-20T05:27:21.175Z,9.43
2018-07-20T05:30:01.742Z,9.77
2018-07-20T05:32:42.362Z,8.37
2018-07-20T05:35:23.720Z,9.27
2018-07-20T05:38:04.988Z,9.97
2018-07-20T05:40:46.212Z,9.43
2018-07-20T05:43:26.968Z,8.83
2018-07-20T05:46:07.210Z,9.70
2018-07-20T05:48:47.803Z,8.77
2018-07-20T05:51:28.892Z,9.63
2018-07-20T05:54:09.689Z,9.47
2018-07-20T05:56:50.400Z,8.90
2018-07-20T05:59:31.223Z,9.83
2018-07-20T06:02:11.663Z,8.67
2018-07-20T06:04:52.420Z,9.20
2018-07-20T06:07:33.172Z,9.50
2018-07-20T06:10:14.090Z,8.97
2018-07-20T06:12:55.458Z,8.90
2018-07-20T06:15:36.261Z,9.87
2018-07-20T06:18:17.033Z,8.90
2018-07-20T06:20:57.538Z,7.67
2018-07-20T06:23:38.432Z,8.20
2018-07-20T06:26:19.309Z,7.83
2018-07-20T06:29:00.009Z,8.10
2018-07-20T06:31:41.253Z,8.30
2018-07-20T06:34:22.476Z,7.57
2018-07-20T06:37:03.452Z,9.10
2018-07-20T06:39:44.015Z,7.57
2018-07-20T06:42:24.730Z,8.70
2018-07-20T06:45:05.917Z,8.67
2018-07-20T06:47:46.669Z,8.17
2018-07-20T06:50:27.549Z,8.43
2018-07-20T06:53:08.056Z,8.43
2018-07-20T06:55:49.284Z,7.93
2018-07-20T06:58:30.387Z,8.77
2018-07-20T07:01:10.752Z,8.57
2018-07-20T07:03:51.200Z,8.40
2018-07-20T07:06:32.372Z,7.60
2018-07-20T07:09:13.537Z,7.00
2018-07-20T07:11:54.112Z,8.33
2018-07-20T07:14:35.207Z,7.80
2018-07-20T07:17:16.221Z,8.20
2018-07-20T07:19:56.728Z,7.90
2018-07-20T07:22:37.799Z,7.30
2018-07-20T07:25:18.303Z,6.33
2018-07-20T07:27:58.836Z,6.73
2018-07-20T07:30:40.116Z,7.00
2018-07-20T07:33:20.687Z,4.90
2018-07-20T07:36:01.459Z,5.63
2018-07-20T07:38:42.125Z,5.03
2018-07-20T07:41:22.876Z,5.57
2018-07-20T07:44:04.074Z,5.30
2018-07-20T07:46:45.018Z,4.80
2018-07-20T07:49:25.507Z,4.40
2018-07-20T07:52:06.684Z,3.97
2018-07-20T07:54:47.109Z,4.37
2018-07-20T07:57:28.112Z,4.07
2018-07-20T08:00:09.399Z,4.90
2018-07-20T08:02:50.369Z,4.73
2018-07-20T08:05:31.509Z,3.83
2018-07-20T08:08:12.627Z,3.60
2018-07-20T08:10:53.111Z,3.43
2018-07-20T08:13:33.967Z,3.40
2018-07-20T08:16:14.962Z,3.70
2018-07-20T08:18:56.170Z,3.40
2018-07-20T08:21:37.721Z,3.90
2018-07-20T08:24:18.189Z,3.40
2018-07-20T08:26:59.305Z,3.47
2018-07-20T08:29:40.347Z,3.20
2018-07-20T08:32:21.108Z,3.90
2018-07-20T08:35:02.293Z,4.77
2018-07-20T08:37:42.994Z,4.03
2018-07-20T08:40:23.808Z,3.87
2018-07-20T08:43:04.426Z,4.00
2018-07-20T08:45:45.303Z,4.27
2018-07-20T08:48:26.500Z,4.33
2018-07-20T08:51:07.305Z,4.07
2018-07-20T08:53:48.129Z,4.10
2018-07-20T08:56:29.079Z,4.20
2018-07-20T08:59:09.761Z,4.37
2018-07-20T09:01:50.628Z,3.87
2018-07-20T09:04:32.136Z,4.10
2018-07-20T09:07:13.356Z,3.83
2018-07-20T09:09:53.831Z,3.93
2018-07-20T09:12:34.556Z,4.37
2018-07-20T09:15:16.189Z,4.53
2018-07-20T09:17:56.685Z,4.60
2018-07-20T09:20:38.233Z,4.37
2018-07-20T09:23:19.612Z,4.30
2018-07-20T09:26:00.553Z,4.50
2018-07-20T09:28:41.312Z,4.80
2018-07-20T09:31:22.194Z,4.57
2018-07-20T09:34:03.069Z,4.60
2018-07-20T09:36:44.090Z,4.50
2018-07-20T09:39:25.217Z,4.87
2018-07-20T09:42:06.398Z,4.33
2018-07-20T09:44:46.924Z,4.20
2018-07-20T09:47:27.457Z,4.33
2018-07-20T09:50:08.333Z,4.43
2018-07-20T09:52:49.240Z,4.20
2018-07-20T09:55:29.756Z,3.90
2018-07-20T09:58:10.403Z,3.70
2018-07-20T10:00:52.395Z,4.00
2018-07-20T10:03:33.569Z,4.27
2018-07-20T10:06:14.527Z,4.33
2018-07-20T10:08:55.377Z,3.90
2018-07-20T10:11:35.851Z,4.20
2018-07-20T10:14:16.568Z,4.17
2018-07-20T10:16:57.679Z,3.83
2018-07-20T10:19:39.137Z,3.77
2018-07-20T10:22:19.800Z,4.20
2018-07-20T10:25:00.635Z,3.90
2018-07-20T10:30:22.891Z,4.00
2018-07-20T10:33:03.649Z,3.70
2018-07-20T10:35:44.477Z,4.13
2018-07-20T10:38:25.333Z,3.93
2018-07-20T10:41:06.643Z,4.07
2018-07-20T10:43:47.004Z,4.17
2018-07-20T10:46:28.224Z,4.00
2018-07-20T10:49:09.017Z,3.83
2018-07-20T10:51:49.481Z,4.10
2018-07-20T10:54:30.962Z,3.87
2018-07-20T10:57:11.532Z,3.90
2018-07-20T10:59:52.345Z,3.90
2018-07-20T11:02:32.836Z,4.20
2018-07-20T11:05:14.106Z,4.43
2018-07-20T11:07:54.974Z,4.30
2018-07-20T11:10:36.327Z,4.43
2018-07-20T11:13:17.054Z,4.23
2018-07-20T11:15:57.763Z,4.20
2018-07-20T11:18:38.391Z,4.13
2018-07-20T11:21:19.293Z,4.10
2018-07-20T11:24:00.527Z,4.30
2018-07-20T11:26:42.811Z,4.20
2018-07-20T11:29:23.712Z,3.93
2018-07-20T11:32:04.486Z,3.90
2018-07-20T11:34:45.726Z,3.73
2018-07-20T11:37:26.504Z,3.97
2018-07-20T11:40:07.299Z,3.80
2018-07-20T11:42:48.090Z,3.70
2018-07-20T11:45:29.040Z,4.00
2018-07-20T11:48:09.820Z,3.70
2018-07-20T11:50:50.814Z,3.60
2018-07-20T11:53:32.073Z,3.80
2018-07-20T11:56:12.916Z,4.37
2018-07-20T11:58:53.890Z,3.87
2018-07-20T12:01:34.283Z,3.77
2018-07-20T12:04:14.689Z,3.80
2018-07-20T12:06:56.038Z,3.83
2018-07-20T12:09:36.544Z,4.13
2018-07-20T12:12:17.191Z,4.00
2018-07-20T12:14:57.924Z,4.00
2018-07-20T12:17:38.662Z,4.27
2018-07-20T12:20:19.352Z,4.00
2018-07-20T12:23:00.028Z,3.83
2018-07-20T12:25:40.953Z,4.00
2018-07-20T12:28:21.795Z,3.73
2018-07-20T12:31:02.340Z,3.73
2018-07-20T12:33:43.090Z,3.83
2018-07-20T12:36:23.521Z,4.73
2018-07-20T12:39:06.257Z,3.83
2018-07-20T12:41:47.269Z,4.27
2018-07-20T12:44:27.804Z,4.10
2018-07-20T12:47:08.942Z,4.47
2018-07-20T12:49:49.525Z,4.30
2018-07-20T12:52:31.395Z,4.30
2018-07-20T12:55:12.213Z,4.30
2018-07-20T12:57:53.036Z,4.70
2018-07-20T13:00:33.689Z,4.23
2018-07-20T13:03:14.352Z,4.50
2018-07-20T13:05:54.981Z,4.70
2018-07-20T13:08:36.147Z,4.10
2018-07-20T13:11:17.558Z,4.27
2018-07-20T13:13:58.415Z,4.47
2018-07-20T13:16:39.311Z,4.07
2018-07-20T13:19:20.265Z,4.50
2018-07-20T13:22:00.705Z,4.60
2018-07-20T13:24:41.401Z,4.30
2018-07-20T13:27:22.473Z,4.13
2018-07-20T13:30:03.492Z,4.10
2018-07-20T13:32:44.584Z,4.47
2018-07-20T13:35:25.802Z,4.50
2018-07-20T13:38:06.693Z,4.40
2018-07-20T13:40:47.684Z,3.73
2018-07-20T13:43:29.824Z,3.93
2018-07-20T13:46:10.661Z,3.73
2018-07-20T13:48:51.492Z,4.50
2018-07-20T13:51:32.211Z,3.83
2018-07-20T13:54:12.327Z,3.67
2018-07-20T13:56:53.040Z,4.20
2018-07-20T13:59:33.589Z,4.00
2018-07-20T14:02:15.626Z,4.20
2018-07-20T14:04:56.400Z,4.23
2018-07-20T14:07:36.873Z,4.50
2018-07-20T14:10:18.000Z,4.40
2018-07-20T14:12:58.776Z,3.50
2018-07-20T14:15:39.995Z,4.00
2018-07-20T14:18:20.483Z,4.60
2018-07-20T14:21:01.288Z,3.90
2018-07-20T14:23:41.945Z,4.33
2018-07-20T14:26:23.281Z,4.20
2018-07-20T14:29:04.264Z,4.30
2018-07-20T14:31:45.493Z,3.87
2018-07-20T14:34:26.085Z,3.67
2018-07-20T14:37:07.570Z,4.10
2018-07-20T14:39:48.511Z,3.60
2018-07-20T14:42:29.395Z,4.63
2018-07-20T14:45:10.856Z,4.47
2018-07-20T14:47:51.516Z,4.00
2018-07-20T14:50:32.373Z,4.47
2018-07-20T14:53:12.697Z,4.00
2018-07-20T14:55:53.372Z,5.00
2018-07-20T14:58:33.721Z,4.20
2018-07-20T15:01:14.090Z,4.13
2018-07-20T15:03:54.748Z,4.40
2018-07-20T15:06:35.106Z,4.10
2018-07-20T15:09:15.524Z,4.20
2018-07-20T15:11:56.273Z,4.60
2018-07-20T15:14:37.008Z,4.40
2018-07-20T15:17:17.910Z,4.30
2018-07-20T15:19:59.054Z,4.30
2018-07-20T15:22:40.126Z,4.00
2018-07-20T15:25:21.257Z,4.57
2018-07-20T15:28:02.097Z,4.50
2018-07-20T15:30:42.854Z,3.97
2018-07-20T15:33:23.338Z,4.73
2018-07-20T15:36:04.502Z,3.93
2018-07-20T15:38:45.592Z,4.47
2018-07-20T15:41:26.057Z,4.40
2018-07-20T15:44:06.957Z,3.77
2018-07-20T15:46:48.324Z,4.33
2018-07-20T15:49:28.753Z,4.30
2018-07-20T15:54:50.723Z,4.40
2018-07-20T15:57:31.768Z,4.30
2018-07-20T16:00:12.242Z,3.90
2018-07-20T16:02:53.190Z,4.00
2018-07-20T16:05:34.885Z,4.73
2018-07-20T16:08:15.585Z,4.37
2018-07-20T16:10:56.721Z,4.20
2018-07-20T16:13:37.666Z,4.67
2018-07-20T16:16:18.164Z,4.40
2018-07-20T16:18:59.090Z,4.67
2018-07-20T16:21:39.473Z,4.40
2018-07-20T16:24:20.389Z,4.93
2018-07-20T16:27:01.147Z,4.50
2018-07-20T16:29:41.952Z,4.83
2018-07-20T16:32:22.529Z,4.60
2018-07-20T16:35:03.365Z,4.83
2018-07-20T16:37:44.291Z,4.10
2018-07-20T16:40:25.186Z,4.20
2018-07-20T16:43:06.076Z,5.70
2018-07-20T16:45:46.774Z,5.03
2018-07-20T16:48:27.228Z,4.63
2018-07-20T16:51:08.308Z,4.47
2018-07-20T16:53:49.175Z,5.50
2018-07-20T16:56:30.395Z,5.00
2018-07-20T16:59:13.342Z,4.67
2018-07-20T17:01:54.713Z,5.10
2018-07-20T17:04:35.439Z,5.10
2018-07-20T17:07:15.817Z,5.20
2018-07-20T17:09:56.277Z,5.07
2018-07-20T17:12:37.146Z,4.93
2018-07-20T17:15:18.065Z,5.20
2018-07-20T17:17:58.437Z,4.87
2018-07-20T17:20:38.845Z,5.00
2018-07-20T17:23:19.656Z,5.23
2018-07-20T17:26:00.757Z,4.80
2018-07-20T17:28:41.441Z,4.83
2018-07-20T17:31:22.120Z,5.50
2018-07-20T17:34:02.489Z,5.53
2018-07-20T17:36:43.872Z,5.63
2018-07-20T17:39:25.298Z,5.90
2018-07-20T17:42:06.376Z,5.47
2018-07-20T17:44:46.791Z,5.50
2018-07-20T17:47:27.665Z,6.10
2018-07-20T17:50:08.573Z,5.60
2018-07-20T17:52:49.483Z,5.60
2018-07-20T17:55:30.682Z,5.90
2018-07-20T17:58:11.747Z,5.30
2018-07-20T18:00:52.702Z,5.93
2018-07-20T18:03:33.452Z,5.47
2018-07-20T18:06:14.549Z,6.20
2018-07-20T18:08:55.732Z,6.60
2018-07-20T18:11:36.521Z,6.20
2018-07-20T18:14:17.048Z,6.13
2018-07-20T18:16:57.761Z,5.77
2018-07-20T18:19:38.447Z,6.63
2018-07-20T18:22:18.934Z,6.23
2018-07-20T18:24:59.340Z,6.83
2018-07-20T18:27:39.833Z,7.40
2018-07-20T18:30:21.652Z,6.67
2018-07-20T18:33:03.870Z,6.90
2018-07-20T18:35:44.768Z,6.03
2018-07-20T18:38:25.297Z,6.80
2018-07-20T18:41:06.420Z,7.30
2018-07-20T18:43:46.922Z,6.47
2018-07-20T18:46:28.106Z,6.90
2018-07-20T18:49:09.470Z,7.67
2018-07-20T18:51:50.755Z,7.23
2018-07-20T18:54:31.175Z,7.17
2018-07-20T18:57:11.824Z,6.93
2018-07-20T18:59:52.987Z,7.20
2018-07-20T19:02:34.307Z,7.27
2018-07-20T19:05:15.656Z,7.27
2018-07-20T19:07:56.473Z,6.63
2018-07-20T19:10:37.173Z,7.47
2018-07-20T19:13:18.195Z,7.00
2018-07-20T19:15:59.068Z,7.37
2018-07-20T19:18:39.876Z,7.23
2018-07-20T19:21:20.380Z,7.23
2018-07-20T19:24:01.292Z,6.27
2018-07-20T19:26:42.245Z,8.17
2018-07-20T19:29:22.964Z,7.27
2018-07-20T19:32:03.737Z,7.40
2018-07-20T19:34:54.182Z,7.23
2018-07-20T19:37:35.532Z,7.57
2018-07-20T19:40:16.709Z,7.90
2018-07-20T19:42:58.397Z,8.20
2018-07-20T19:45:45.235Z,8.43
2018-07-20T19:48:26.466Z,7.60
2018-07-20T19:51:07.122Z,8.60
2018-07-20T19:53:48.368Z,8.40
2018-07-20T19:56:29.190Z,7.87
2018-07-20T19:59:10.146Z,7.60
2018-07-20T20:01:51.018Z,8.13
2018-07-20T20:04:31.448Z,8.83
2018-07-20T20:07:12.176Z,8.37
2018-07-20T20:09:53.970Z,8.30
2018-07-20T20:12:34.744Z,8.97
2018-07-20T20:15:15.978Z,8.23
2018-07-20T20:17:57.535Z,9.07
2018-07-20T20:20:38.131Z,9.30
2018-07-20T20:23:19.386Z,9.17
2018-07-20T20:25:59.946Z,9.57
2018-07-20T20:28:40.765Z,9.77
2018-07-20T20:31:21.392Z,9.50
2018-07-20T20:34:02.810Z,9.90
2018-07-20T20:36:43.441Z,10.00
2018-07-20T20:39:24.097Z,10.27
2018-07-20T20:42:05.294Z,10.50
2018-07-20T20:44:46.305Z,11.70
2018-07-20T20:47:26.914Z,12.33
2018-07-20T20:50:08.553Z,13.10
2018-07-20T20:52:50.095Z,10.73
2018-07-20T20:55:30.999Z,11.93
2018-07-20T20:58:11.639Z,13.70
2018-07-20T21:00:53.021Z,14.23
2018-07-20T21:03:33.722Z,14.80
2018-07-20T21:06:14.248Z,13.80
2018-07-20T21:08:55.673Z,14.07
2018-07-20T21:11:37.251Z,13.03
2018-07-20T21:14:18.282Z,12.57
2018-07-20T21:16:59.656Z,12.20
2018-07-20T21:19:40.861Z,12.80
2018-07-20T21:22:22.438Z,13.73
2018-07-20T21:25:03.069Z,13.03
2018-07-20T21:27:43.563Z,12.37
2018-07-20T21:30:24.268Z,11.57
2018-07-20T21:33:05.241Z,11.47
2018-07-20T21:35:45.925Z,12.77
2018-07-20T21:38:26.813Z,12.23
2018-07-20T21:41:07.533Z,12.97
2018-07-20T21:43:48.160Z,13.50
2018-07-20T21:46:29.206Z,12.90
2018-07-20T21:49:10.343Z,11.80
2018-07-20T21:51:51.249Z,13.60
2018-07-20T21:54:31.596Z,13.17
2018-07-20T21:57:12.321Z,13.63
2018-07-20T21:59:53.344Z,13.90
2018-07-20T22:02:34.371Z,14.40
2018-07-20T22:05:15.712Z,16.13
2018-07-20T22:08:01.293Z,15.33
2018-07-20T22:10:42.313Z,15.13
2018-07-20T22:13:23.515Z,14.20
2018-07-20T22:16:04.307Z,12.27
2018-07-20T22:18:45.385Z,12.30
2018-07-20T22:21:26.066Z,12.57
2018-07-20T22:24:07.461Z,12.80
2018-07-20T22:26:48.426Z,11.70
2018-07-20T22:29:28.882Z,12.77
2018-07-20T22:32:10.890Z,11.20
2018-07-20T22:34:52.139Z,12.37
2018-07-20T22:37:32.972Z,13.20
2018-07-20T22:40:13.537Z,13.17
2018-07-20T22:42:54.368Z,12.97
2018-07-20T22:45:34.832Z,13.10
2018-07-20T22:48:15.640Z,12.53
2018-07-20T22:50:56.581Z,11.63
2018-07-20T22:53:37.543Z,11.23
2018-07-20T22:56:19.068Z,12.40
2018-07-20T22:59:00.182Z,10.47
2018-07-20T23:01:41.154Z,11.90
2018-07-20T23:04:21.910Z,11.53
2018-07-20T23:07:02.797Z,12.23
2018-07-20T23:09:43.948Z,12.87
2018-07-20T23:12:24.707Z,13.63
2018-07-20T23:15:05.501Z,12.47
2018-07-20T23:17:46.356Z,11.50
2018-07-20T23:20:28.200Z,12.00
2018-07-20T23:23:09.417Z,12.10
2018-07-20T23:25:50.450Z,11.63
2018-07-20T23:28:32.780Z,11.07
2018-07-20T23:31:13.431Z,11.13
2018-07-20T23:33:54.240Z,11.00
2018-07-20T23:36:35.757Z,11.43
2018-07-20T23:39:16.615Z,11.00
2018-07-20T23:41:57.198Z,10.50
2018-07-20T23:44:37.643Z,10.70
2018-07-20T23:47:18.278Z,10.30
2018-07-20T23:49:59.244Z,9.47
2018-07-20T23:52:39.864Z,10.73
2018-07-20T23:55:20.286Z,10.27
2018-07-20T23:58:01.154Z,11.33
